sensor_id;sensor_type;location;lat;lon;timestamp;pressure;altitude;pressure_sealevel;temperature;humidity
18167;BME280;9208;42.688;23.404;2022-08-01T00:00:30;95357.47;;;21.56;100.00
18167;BME280;9208;42.688;23.404;2022-08-01T00:02:55;95358.22;;;21.57;99.70
18167;BME280;9208;42.688;23.404;2022-08-01T00:05:21;95359.50;;;21.48;99.66
18167;BME280;9208;42.688;23.404;2022-08-01T00:07:46;95350.50;;;21.35;100.00
18167;BME280;9208;42.688;23.404;2022-08-01T00:10:15;95360.72;;;21.32;100.00
18167;BME280;9208;42.688;23.404;2022-08-01T00:12:42;95359.03;;;21.29;100.00
18167;BME280;9208;42.688;23.404;2022-08-01T00:15:09;95356.78;;;21.28;100.00
18167;BME280;9208;42.688;23.404;2022-08-01T00:17:36;95347.47;;;21.25;100.00
18167;BME280;9208;42.688;23.404;2022-08-01T00:20:03;95358.25;;;21.21;100.00
18167;BME280;9208;42.688;23.404;2022-08-01T00:22:34;95359.19;;;21.24;100.00
18167;BME280;9208;42.688;23.404;2022-08-01T00:24:59;95353.41;;;21.22;100.00
18167;BME280;9208;42.688;23.404;2022-08-01T00:27:25;95363.50;;;21.32;99.41
18167;BME280;9208;42.688;23.404;2022-08-01T00:29:51;95358.13;;;21.34;99.19
18167;BME280;9208;42.688;23.404;2022-08-01T00:32:16;95368.91;;;21.30;99.61
18167;BME280;9208;42.688;23.404;2022-08-01T00:34:42;95368.94;;;21.38;99.07
18167;BME280;9208;42.688;23.404;2022-08-01T00:37:07;95363.50;;;21.32;99.19
18167;BME280;9208;42.688;23.404;2022-08-01T00:39:33;95364.81;;;21.31;99.36
18167;BME280;9208;42.688;23.404;2022-08-01T00:41:59;95365.31;;;21.22;99.53
18167;BME280;9208;42.688;23.404;2022-08-01T00:44:24;95363.84;;;21.21;99.54
18167;BME280;9208;42.688;23.404;2022-08-01T00:46:50;95365.28;;;21.15;99.69
18167;BME280;9208;42.688;23.404;2022-08-01T00:49:16;95360.44;;;21.15;99.25
18167;BME280;9208;42.688;23.404;2022-08-01T00:51:41;95363.38;;;21.10;99.62
18167;BME280;9208;42.688;23.404;2022-08-01T00:54:07;95353.75;;;21.11;99.32
18167;BME280;9208;42.688;23.404;2022-08-01T00:56:32;95353.38;;;21.14;99.07
18167;BME280;9208;42.688;23.404;2022-08-01T00:58:58;95344.25;;;21.14;99.05
18167;BME280;9208;42.688;23.404;2022-08-01T01:01:24;95341.28;;;21.12;99.13
18167;BME280;9208;42.688;23.404;2022-08-01T01:03:50;95336.47;;;21.12;99.25
18167;BME280;9208;42.688;23.404;2022-08-01T01:12:24;95328.78;;;21.05;99.33
18167;BME280;9208;42.688;23.404;2022-08-01T01:15:08;95325.63;;;21.01;99.40
18167;BME280;9208;42.688;23.404;2022-08-01T01:20:12;95322.38;;;20.90;100.00
18167;BME280;9208;42.688;23.404;2022-08-01T01:30:35;95311.69;;;20.73;100.00
18167;BME280;9208;42.688;23.404;2022-08-01T01:33:05;95312.63;;;20.76;100.00
18167;BME280;9208;42.688;23.404;2022-08-01T01:35:36;95311.88;;;20.75;100.00
18167;BME280;9208;42.688;23.404;2022-08-01T01:38:15;95317.25;;;20.73;100.00
18167;BME280;9208;42.688;23.404;2022-08-01T01:40:43;95313.53;;;20.71;100.00
18167;BME280;9208;42.688;23.404;2022-08-01T01:43:10;95315.38;;;20.68;100.00
18167;BME280;9208;42.688;23.404;2022-08-01T01:45:37;95314.25;;;20.71;100.00
18167;BME280;9208;42.688;23.404;2022-08-01T01:48:04;95308.00;;;20.78;100.00
18167;BME280;9208;42.688;23.404;2022-08-01T01:50:32;95313.56;;;20.78;100.00
18167;BME280;9208;42.688;23.404;2022-08-01T01:52:59;95305.03;;;20.76;100.00
18167;BME280;9208;42.688;23.404;2022-08-01T01:55:25;95307.94;;;20.71;100.00
18167;BME280;9208;42.688;23.404;2022-08-01T01:57:52;95311.09;;;20.67;100.00
18167;BME280;9208;42.688;23.404;2022-08-01T02:00:19;95309.03;;;20.68;100.00
18167;BME280;9208;42.688;23.404;2022-08-01T02:02:45;95304.41;;;20.70;100.00
18167;BME280;9208;42.688;23.404;2022-08-01T02:05:12;95297.75;;;20.73;100.00
18167;BME280;9208;42.688;23.404;2022-08-01T02:07:39;95304.81;;;20.74;100.00
18167;BME280;9208;42.688;23.404;2022-08-01T02:10:06;95301.25;;;20.74;100.00
18167;BME280;9208;42.688;23.404;2022-08-01T02:12:36;95304.81;;;20.74;100.00
18167;BME280;9208;42.688;23.404;2022-08-01T02:15:04;95291.81;;;20.77;100.00
18167;BME280;9208;42.688;23.404;2022-08-01T02:17:31;95298.69;;;20.76;98.85
18167;BME280;9208;42.688;23.404;2022-08-01T02:19:57;95298.09;;;20.70;99.01
18167;BME280;9208;42.688;23.404;2022-08-01T02:22:42;95302.03;;;20.74;98.45
18167;BME280;9208;42.688;23.404;2022-08-01T02:28:06;95294.56;;;20.69;98.74
18167;BME280;9208;42.688;23.404;2022-08-01T02:30:35;95298.78;;;20.63;98.87
18167;BME280;9208;42.688;23.404;2022-08-01T02:33:22;95294.47;;;20.54;99.68
18167;BME280;9208;42.688;23.404;2022-08-01T02:35:51;95302.22;;;20.48;100.00
18167;BME280;9208;42.688;23.404;2022-08-01T02:38:18;95299.97;;;20.47;100.00
18167;BME280;9208;42.688;23.404;2022-08-01T02:40:47;95298.84;;;20.42;100.00
18167;BME280;9208;42.688;23.404;2022-08-01T02:43:18;95302.78;;;20.26;100.00
18167;BME280;9208;42.688;23.404;2022-08-01T02:45:48;95302.00;;;20.18;100.00
18167;BME280;9208;42.688;23.404;2022-08-01T02:48:16;95296.16;;;20.09;100.00
18167;BME280;9208;42.688;23.404;2022-08-01T02:50:47;95294.97;;;20.04;100.00
18167;BME280;9208;42.688;23.404;2022-08-01T02:53:13;95290.09;;;19.97;100.00
18167;BME280;9208;42.688;23.404;2022-08-01T02:55:40;95295.19;;;19.86;100.00
18167;BME280;9208;42.688;23.404;2022-08-01T02:58:07;95293.81;;;19.79;100.00
18167;BME280;9208;42.688;23.404;2022-08-01T03:00:34;95291.69;;;19.72;100.00
18167;BME280;9208;42.688;23.404;2022-08-01T03:03:03;95299.78;;;19.63;100.00
18167;BME280;9208;42.688;23.404;2022-08-01T03:05:30;95298.28;;;19.62;100.00
18167;BME280;9208;42.688;23.404;2022-08-01T03:07:57;95298.06;;;19.60;100.00
18167;BME280;9208;42.688;23.404;2022-08-01T03:10:27;95299.34;;;19.59;100.00
18167;BME280;9208;42.688;23.404;2022-08-01T03:12:54;95294.34;;;19.57;100.00
18167;BME280;9208;42.688;23.404;2022-08-01T03:15:23;95298.28;;;19.62;100.00
18167;BME280;9208;42.688;23.404;2022-08-01T03:17:51;95297.00;;;19.63;100.00
18167;BME280;9208;42.688;23.404;2022-08-01T03:20:18;95307.91;;;19.61;100.00
18167;BME280;9208;42.688;23.404;2022-08-01T03:22:47;95307.38;;;19.62;100.00
18167;BME280;9208;42.688;23.404;2022-08-01T03:25:15;95303.28;;;19.63;100.00
18167;BME280;9208;42.688;23.404;2022-08-01T03:27:55;95304.38;;;19.60;100.00
18167;BME280;9208;42.688;23.404;2022-08-01T03:30:26;95295.09;;;19.58;100.00
18167;BME280;9208;42.688;23.404;2022-08-01T03:32:52;95308.66;;;19.61;100.00
18167;BME280;9208;42.688;23.404;2022-08-01T03:35:18;95301.88;;;19.70;100.00
18167;BME280;9208;42.688;23.404;2022-08-01T03:37:52;95312.88;;;19.75;100.00
18167;BME280;9208;42.688;23.404;2022-08-01T03:40:24;95314.06;;;19.80;100.00
18167;BME280;9208;42.688;23.404;2022-08-01T03:43:00;95315.00;;;19.82;100.00
18167;BME280;9208;42.688;23.404;2022-08-01T03:45:31;95327.06;;;19.85;100.00
18167;BME280;9208;42.688;23.404;2022-08-01T03:48:01;95317.22;;;19.84;100.00
18167;BME280;9208;42.688;23.404;2022-08-01T03:50:29;95321.09;;;19.81;100.00
18167;BME280;9208;42.688;23.404;2022-08-01T03:53:00;95310.69;;;19.81;100.00
18167;BME280;9208;42.688;23.404;2022-08-01T03:55:27;95313.69;;;19.83;100.00
18167;BME280;9208;42.688;23.404;2022-08-01T03:57:53;95320.94;;;19.86;100.00
18167;BME280;9208;42.688;23.404;2022-08-01T04:00:19;95319.88;;;19.89;100.00
18167;BME280;9208;42.688;23.404;2022-08-01T04:02:49;95325.09;;;19.93;100.00
18167;BME280;9208;42.688;23.404;2022-08-01T04:05:16;95323.34;;;20.03;100.00
18167;BME280;9208;42.688;23.404;2022-08-01T04:07:46;95320.22;;;20.06;99.29
18167;BME280;9208;42.688;23.404;2022-08-01T04:10:12;95328.03;;;20.08;99.62
18167;BME280;9208;42.688;23.404;2022-08-01T04:12:41;95325.13;;;20.13;99.37
18167;BME280;9208;42.688;23.404;2022-08-01T04:15:07;95325.75;;;20.19;98.56
18167;BME280;9208;42.688;23.404;2022-08-01T04:17:32;95321.88;;;20.22;97.55
18167;BME280;9208;42.688;23.404;2022-08-01T04:19:58;95325.47;;;20.30;96.71
18167;BME280;9208;42.688;23.404;2022-08-01T04:22:23;95315.28;;;20.33;96.39
18167;BME280;9208;42.688;23.404;2022-08-01T04:24:51;95320.53;;;20.36;96.21
18167;BME280;9208;42.688;23.404;2022-08-01T04:27:25;95327.75;;;20.39;96.21
18167;BME280;9208;42.688;23.404;2022-08-01T04:29:56;95325.94;;;20.42;96.19
18167;BME280;9208;42.688;23.404;2022-08-01T04:32:25;95333.56;;;20.41;96.37
18167;BME280;9208;42.688;23.404;2022-08-01T04:34:53;95328.22;;;20.51;96.05
18167;BME280;9208;42.688;23.404;2022-08-01T04:37:22;95329.16;;;20.53;96.10
18167;BME280;9208;42.688;23.404;2022-08-01T04:39:52;95315.31;;;20.61;96.37
18167;BME280;9208;42.688;23.404;2022-08-01T04:42:18;95318.56;;;20.72;96.20
18167;BME280;9208;42.688;23.404;2022-08-01T04:44:44;95315.84;;;20.87;95.72
18167;BME280;9208;42.688;23.404;2022-08-01T04:47:11;95309.63;;;20.94;94.47
18167;BME280;9208;42.688;23.404;2022-08-01T04:49:37;95322.25;;;20.95;93.49
18167;BME280;9208;42.688;23.404;2022-08-01T04:52:03;95316.72;;;21.03;93.16
18167;BME280;9208;42.688;23.404;2022-08-01T04:54:34;95313.78;;;21.08;92.54
18167;BME280;9208;42.688;23.404;2022-08-01T04:57:03;95316.59;;;21.16;92.25
18167;BME280;9208;42.688;23.404;2022-08-01T04:59:31;95309.75;;;21.24;92.39
18167;BME280;9208;42.688;23.404;2022-08-01T05:02:07;95311.63;;;21.29;91.57
18167;BME280;9208;42.688;23.404;2022-08-01T05:04:33;95306.78;;;21.22;91.15
18167;BME280;9208;42.688;23.404;2022-08-01T05:06:59;95311.03;;;21.23;91.22
18167;BME280;9208;42.688;23.404;2022-08-01T05:09:25;95305.31;;;21.29;90.98
18167;BME280;9208;42.688;23.404;2022-08-01T05:11:50;95307.72;;;21.32;90.80
18167;BME280;9208;42.688;23.404;2022-08-01T05:14:16;95304.59;;;21.36;90.03
18167;BME280;9208;42.688;23.404;2022-08-01T05:16:41;95303.88;;;21.43;89.28
18167;BME280;9208;42.688;23.404;2022-08-01T05:19:09;95303.53;;;21.54;88.26
18167;BME280;9208;42.688;23.404;2022-08-01T05:21:35;95291.81;;;21.55;87.25
18167;BME280;9208;42.688;23.404;2022-08-01T05:24:00;95299.09;;;21.66;86.04
18167;BME280;9208;42.688;23.404;2022-08-01T05:26:26;95299.53;;;21.77;84.77
18167;BME280;9208;42.688;23.404;2022-08-01T05:28:51;95303.81;;;21.86;83.70
18167;BME280;9208;42.688;23.404;2022-08-01T05:31:17;95306.44;;;21.99;82.95
18167;BME280;9208;42.688;23.404;2022-08-01T05:33:43;95316.34;;;22.07;82.05
18167;BME280;9208;42.688;23.404;2022-08-01T05:36:08;95311.31;;;22.13;81.16
18167;BME280;9208;42.688;23.404;2022-08-01T05:38:34;95315.03;;;22.23;80.45
18167;BME280;9208;42.688;23.404;2022-08-01T05:40:59;95312.63;;;22.27;79.97
18167;BME280;9208;42.688;23.404;2022-08-01T05:43:25;95302.56;;;22.32;80.07
18167;BME280;9208;42.688;23.404;2022-08-01T05:45:50;95304.22;;;22.35;79.74
18167;BME280;9208;42.688;23.404;2022-08-01T05:48:16;95314.13;;;22.43;78.30
18167;BME280;9208;42.688;23.404;2022-08-01T05:50:41;95328.09;;;22.51;76.23
18167;BME280;9208;42.688;23.404;2022-08-01T05:53:06;95331.81;;;22.61;74.55
18167;BME280;9208;42.688;23.404;2022-08-01T05:55:32;95346.72;;;22.71;72.90
18167;BME280;9208;42.688;23.404;2022-08-01T05:57:57;95356.97;;;22.83;72.15
18167;BME280;9208;42.688;23.404;2022-08-01T06:00:23;95358.44;;;22.92;72.03
18167;BME280;9208;42.688;23.404;2022-08-01T06:02:48;95358.06;;;22.88;71.57
18167;BME280;9208;42.688;23.404;2022-08-01T06:05:16;95347.25;;;22.92;71.63
18167;BME280;9208;42.688;23.404;2022-08-01T06:07:42;95339.22;;;23.03;72.09
18167;BME280;9208;42.688;23.404;2022-08-01T06:10:08;95336.41;;;23.03;72.59
18167;BME280;9208;42.688;23.404;2022-08-01T06:12:34;95341.81;;;23.09;72.06
18167;BME280;9208;42.688;23.404;2022-08-01T06:15:00;95334.72;;;23.15;72.25
18167;BME280;9208;42.688;23.404;2022-08-01T06:17:28;95333.97;;;23.22;72.54
18167;BME280;9208;42.688;23.404;2022-08-01T06:19:54;95348.50;;;23.28;72.42
18167;BME280;9208;42.688;23.404;2022-08-01T06:22:19;95344.78;;;23.33;71.75
18167;BME280;9208;42.688;23.404;2022-08-01T06:24:44;95354.44;;;23.40;70.63
18167;BME280;9208;42.688;23.404;2022-08-01T06:27:10;95350.13;;;23.46;70.97
18167;BME280;9208;42.688;23.404;2022-08-01T06:29:35;95347.69;;;23.50;71.20
18167;BME280;9208;42.688;23.404;2022-08-01T06:32:01;95350.50;;;23.43;70.47
18167;BME280;9208;42.688;23.404;2022-08-01T06:34:26;95354.97;;;23.46;69.72
18167;BME280;9208;42.688;23.404;2022-08-01T06:36:52;95345.22;;;23.54;70.40
18167;BME280;9208;42.688;23.404;2022-08-01T06:39:17;95336.28;;;23.56;70.11
18167;BME280;9208;42.688;23.404;2022-08-01T06:41:43;95345.47;;;23.49;69.73
18167;BME280;9208;42.688;23.404;2022-08-01T06:44:11;95332.91;;;23.57;70.22
18167;BME280;9208;42.688;23.404;2022-08-01T06:46:37;95330.69;;;23.56;70.03
18167;BME280;9208;42.688;23.404;2022-08-01T06:49:03;95333.28;;;23.61;68.67
18167;BME280;9208;42.688;23.404;2022-08-01T06:51:28;95339.94;;;23.66;68.26
18167;BME280;9208;42.688;23.404;2022-08-01T06:53:54;95332.72;;;23.63;67.81
18167;BME280;9208;42.688;23.404;2022-08-01T06:56:19;95346.13;;;23.64;66.95
18167;BME280;9208;42.688;23.404;2022-08-01T06:58:45;95349.09;;;23.66;66.45
18167;BME280;9208;42.688;23.404;2022-08-01T07:01:10;95335.31;;;23.68;66.90
18167;BME280;9208;42.688;23.404;2022-08-01T07:03:36;95346.25;;;23.74;66.94
18167;BME280;9208;42.688;23.404;2022-08-01T07:06:02;95344.34;;;23.84;66.62
18167;BME280;9208;42.688;23.404;2022-08-01T07:08:28;95345.84;;;23.85;66.05
18167;BME280;9208;42.688;23.404;2022-08-01T07:10:56;95329.97;;;23.87;66.80
18167;BME280;9208;42.688;23.404;2022-08-01T07:13:27;95333.09;;;23.99;66.74
18167;BME280;9208;42.688;23.404;2022-08-01T07:15:56;95354.53;;;24.04;65.52
18167;BME280;9208;42.688;23.404;2022-08-01T07:18:21;95355.97;;;24.12;65.53
18167;BME280;9208;42.688;23.404;2022-08-01T07:20:48;95348.88;;;24.11;65.92
18167;BME280;9208;42.688;23.404;2022-08-01T07:23:14;95340.28;;;24.17;66.41
18167;BME280;9208;42.688;23.404;2022-08-01T07:25:39;95352.78;;;24.16;66.07
18167;BME280;9208;42.688;23.404;2022-08-01T07:28:05;95359.31;;;24.18;65.36
18167;BME280;9208;42.688;23.404;2022-08-01T07:30:31;95366.19;;;24.25;65.42
18167;BME280;9208;42.688;23.404;2022-08-01T07:32:56;95366.91;;;24.25;65.01
18167;BME280;9208;42.688;23.404;2022-08-01T07:35:25;95369.91;;;24.27;64.72
18167;BME280;9208;42.688;23.404;2022-08-01T07:37:51;95360.75;;;24.27;64.65
18167;BME280;9208;42.688;23.404;2022-08-01T07:40:19;95343.38;;;24.28;65.12
18167;BME280;9208;42.688;23.404;2022-08-01T07:42:45;95353.38;;;24.39;65.00
18167;BME280;9208;42.688;23.404;2022-08-01T07:45:12;95351.84;;;24.45;64.80
18167;BME280;9208;42.688;23.404;2022-08-01T07:47:37;95378.31;;;24.52;64.64
18167;BME280;9208;42.688;23.404;2022-08-01T07:50:05;95377.56;;;24.51;63.54
18167;BME280;9208;42.688;23.404;2022-08-01T07:52:31;95372.88;;;24.54;64.09
18167;BME280;9208;42.688;23.404;2022-08-01T07:54:57;95363.72;;;24.61;64.18
18167;BME280;9208;42.688;23.404;2022-08-01T07:57:23;95376.78;;;24.58;63.71
18167;BME280;9208;42.688;23.404;2022-08-01T07:59:49;95365.75;;;24.60;63.35
18167;BME280;9208;42.688;23.404;2022-08-01T08:02:14;95356.41;;;24.58;64.57
18167;BME280;9208;42.688;23.404;2022-08-01T08:04:40;95354.53;;;24.60;64.49
18167;BME280;9208;42.688;23.404;2022-08-01T08:07:06;95362.16;;;24.67;64.50
18167;BME280;9208;42.688;23.404;2022-08-01T08:09:31;95355.41;;;24.70;64.72
18167;BME280;9208;42.688;23.404;2022-08-01T08:11:57;95351.78;;;24.77;65.02
18167;BME280;9208;42.688;23.404;2022-08-01T08:14:22;95340.66;;;24.87;65.33
18167;BME280;9208;42.688;23.404;2022-08-01T08:16:49;95342.50;;;24.92;65.29
18167;BME280;9208;42.688;23.404;2022-08-01T08:19:15;95341.09;;;25.00;65.15
18167;BME280;9208;42.688;23.404;2022-08-01T08:21:41;95341.22;;;25.10;64.93
18167;BME280;9208;42.688;23.404;2022-08-01T08:24:10;95350.84;;;25.16;63.84
18167;BME280;9208;42.688;23.404;2022-08-01T08:26:46;95362.53;;;25.30;62.61
18167;BME280;9208;42.688;23.404;2022-08-01T08:29:11;95383.75;;;25.40;61.87
18167;BME280;9208;42.688;23.404;2022-08-01T08:31:37;95392.84;;;25.48;60.73
18167;BME280;9208;42.688;23.404;2022-08-01T08:34:03;95401.50;;;25.60;59.70
18167;BME280;9208;42.688;23.404;2022-08-01T08:36:28;95400.94;;;25.62;59.79
18167;BME280;9208;42.688;23.404;2022-08-01T08:38:54;95400.50;;;25.65;60.21
18167;BME280;9208;42.688;23.404;2022-08-01T08:41:20;95402.75;;;25.67;60.48
18167;BME280;9208;42.688;23.404;2022-08-01T08:43:47;95396.94;;;25.64;59.56
18167;BME280;9208;42.688;23.404;2022-08-01T08:46:13;95420.66;;;25.71;57.81
18167;BME280;9208;42.688;23.404;2022-08-01T08:48:40;95436.16;;;25.72;56.18
18167;BME280;9208;42.688;23.404;2022-08-01T08:51:07;95423.34;;;25.78;57.64
18167;BME280;9208;42.688;23.404;2022-08-01T08:53:35;95417.91;;;25.81;57.28
18167;BME280;9208;42.688;23.404;2022-08-01T08:56:02;95437.72;;;25.83;54.94
18167;BME280;9208;42.688;23.404;2022-08-01T08:58:28;95438.41;;;25.91;55.55
18167;BME280;9208;42.688;23.404;2022-08-01T09:00:54;95416.44;;;25.97;56.43
18167;BME280;9208;42.688;23.404;2022-08-01T09:03:20;95411.13;;;26.01;56.47
18167;BME280;9208;42.688;23.404;2022-08-01T09:05:45;95421.69;;;26.10;56.71
18167;BME280;9208;42.688;23.404;2022-08-01T09:08:11;95415.50;;;26.11;55.54
18167;BME280;9208;42.688;23.404;2022-08-01T09:10:39;95414.94;;;26.13;55.62
18167;BME280;9208;42.688;23.404;2022-08-01T09:13:10;95421.59;;;26.17;55.74
18167;BME280;9208;42.688;23.404;2022-08-01T09:18:09;95413.34;;;26.19;56.01
18167;BME280;9208;42.688;23.404;2022-08-01T09:20:51;95417.63;;;26.20;56.18
18167;BME280;9208;42.688;23.404;2022-08-01T09:26:14;95387.63;;;26.23;55.98
18167;BME280;9208;42.688;23.404;2022-08-01T09:28:41;95403.00;;;26.22;55.80
18167;BME280;9208;42.688;23.404;2022-08-01T09:31:12;95399.97;;;26.37;55.62
18167;BME280;9208;42.688;23.404;2022-08-01T09:33:53;95399.97;;;26.37;55.55
18167;BME280;9208;42.688;23.404;2022-08-01T09:36:20;95430.06;;;26.44;54.39
18167;BME280;9208;42.688;23.404;2022-08-01T09:38:46;95413.22;;;26.53;54.08
18167;BME280;9208;42.688;23.404;2022-08-01T09:41:12;95421.81;;;26.55;54.40
18167;BME280;9208;42.688;23.404;2022-08-01T09:43:37;95424.69;;;26.65;53.23
18167;BME280;9208;42.688;23.404;2022-08-01T09:46:10;95435.38;;;26.66;53.55
18167;BME280;9208;42.688;23.404;2022-08-01T09:48:37;95443.28;;;26.77;52.02
18167;BME280;9208;42.688;23.404;2022-08-01T09:51:05;95454.69;;;26.79;50.27
18167;BME280;9208;42.688;23.404;2022-08-01T09:54:00;95466.38;;;26.85;49.94
18167;BME280;9208;42.688;23.404;2022-08-01T09:56:36;95454.25;;;26.83;50.68
18167;BME280;9208;42.688;23.404;2022-08-01T09:59:02;95451.28;;;26.81;50.63
18167;BME280;9208;42.688;23.404;2022-08-01T10:01:40;95447.09;;;26.72;50.76
18167;BME280;9208;42.688;23.404;2022-08-01T10:04:13;95423.03;;;26.88;52.25
18167;BME280;9208;42.688;23.404;2022-08-01T10:06:41;95409.41;;;26.85;52.93
18167;BME280;9208;42.688;23.404;2022-08-01T10:09:08;95397.13;;;26.90;52.47
18167;BME280;9208;42.688;23.404;2022-08-01T10:11:36;95404.41;;;26.93;52.22
18167;BME280;9208;42.688;23.404;2022-08-01T10:14:04;95405.31;;;27.05;52.05
18167;BME280;9208;42.688;23.404;2022-08-01T10:16:34;95401.47;;;27.10;51.88
18167;BME280;9208;42.688;23.404;2022-08-01T10:19:02;95406.19;;;27.07;52.29
18167;BME280;9208;42.688;23.404;2022-08-01T10:21:32;95385.03;;;27.06;53.65
18167;BME280;9208;42.688;23.404;2022-08-01T10:23:58;95375.84;;;27.15;53.46
18167;BME280;9208;42.688;23.404;2022-08-01T10:26:25;95384.19;;;27.23;53.37
18167;BME280;9208;42.688;23.404;2022-08-01T10:28:52;95389.53;;;27.28;52.87
18167;BME280;9208;42.688;23.404;2022-08-01T10:31:19;95378.13;;;27.36;52.90
18167;BME280;9208;42.688;23.404;2022-08-01T10:33:44;95384.38;;;27.44;52.07
18167;BME280;9208;42.688;23.404;2022-08-01T10:36:12;95385.72;;;27.43;51.73
18167;BME280;9208;42.688;23.404;2022-08-01T10:38:41;95389.88;;;27.51;51.23
18167;BME280;9208;42.688;23.404;2022-08-01T10:41:08;95407.97;;;27.48;50.64
18167;BME280;9208;42.688;23.404;2022-08-01T10:43:33;95399.50;;;27.58;49.82
18167;BME280;9208;42.688;23.404;2022-08-01T10:45:59;95398.03;;;27.57;49.91
18167;BME280;9208;42.688;23.404;2022-08-01T10:51:13;95410.16;;;27.50;49.84
18167;BME280;9208;42.688;23.404;2022-08-01T10:53:47;95388.53;;;27.52;50.00
18167;BME280;9208;42.688;23.404;2022-08-01T10:56:13;95390.16;;;27.55;50.59
18167;BME280;9208;42.688;23.404;2022-08-01T10:58:42;95388.25;;;27.58;50.86
18167;BME280;9208;42.688;23.404;2022-08-01T11:01:23;95383.34;;;27.58;50.66
18167;BME280;9208;42.688;23.404;2022-08-01T11:06:25;95366.75;;;27.62;51.11
18167;BME280;9208;42.688;23.404;2022-08-01T11:08:52;95378.63;;;27.61;50.71
18167;BME280;9208;42.688;23.404;2022-08-01T11:11:20;95368.53;;;27.48;51.06
18167;BME280;9208;42.688;23.404;2022-08-01T11:16:27;95366.88;;;27.55;50.99
18167;BME280;9208;42.688;23.404;2022-08-01T11:18:53;95363.47;;;27.56;51.09
18167;BME280;9208;42.688;23.404;2022-08-01T11:21:19;95353.41;;;27.53;50.79
18167;BME280;9208;42.688;23.404;2022-08-01T11:23:50;95358.00;;;27.68;51.31
18167;BME280;9208;42.688;23.404;2022-08-01T11:26:17;95365.41;;;27.73;50.49
18167;BME280;9208;42.688;23.404;2022-08-01T11:28:44;95369.72;;;27.74;49.64
18167;BME280;9208;42.688;23.404;2022-08-01T11:38:41;95377.44;;;27.92;49.24
18167;BME280;9208;42.688;23.404;2022-08-01T11:41:17;95376.13;;;27.84;49.53
18167;BME280;9208;42.688;23.404;2022-08-01T11:44:02;95361.56;;;27.78;49.90
18167;BME280;9208;42.688;23.404;2022-08-01T11:59:45;95349.84;;;28.00;49.59
18167;BME280;9208;42.688;23.404;2022-08-01T12:02:29;95367.31;;;28.08;49.62
18167;BME280;9208;42.688;23.404;2022-08-01T12:05:01;95360.94;;;28.08;49.54
18167;BME280;9208;42.688;23.404;2022-08-01T12:07:29;95358.41;;;28.12;49.60
18167;BME280;9208;42.688;23.404;2022-08-01T12:10:09;95351.00;;;28.16;48.88
18167;BME280;9208;42.688;23.404;2022-08-01T12:12:37;95367.31;;;28.18;48.58
18167;BME280;9208;42.688;23.404;2022-08-01T12:15:08;95363.44;;;28.23;48.54
18167;BME280;9208;42.688;23.404;2022-08-01T12:17:42;95368.63;;;28.26;48.70
18167;BME280;9208;42.688;23.404;2022-08-01T12:20:13;95355.88;;;28.25;49.00
18167;BME280;9208;42.688;23.404;2022-08-01T12:22:39;95357.47;;;28.28;49.21
18167;BME280;9208;42.688;23.404;2022-08-01T12:25:10;95358.50;;;28.33;49.08
18167;BME280;9208;42.688;23.404;2022-08-01T12:27:38;95375.56;;;28.35;49.06
18167;BME280;9208;42.688;23.404;2022-08-01T12:30:14;95367.97;;;28.37;48.95
18167;BME280;9208;42.688;23.404;2022-08-01T12:32:41;95358.22;;;28.29;49.18
18167;BME280;9208;42.688;23.404;2022-08-01T12:35:34;95359.25;;;28.33;48.79
18167;BME280;9208;42.688;23.404;2022-08-01T12:38:02;95359.41;;;28.35;48.38
18167;BME280;9208;42.688;23.404;2022-08-01T12:40:31;95365.22;;;28.18;48.87
18167;BME280;9208;42.688;23.404;2022-08-01T12:43:00;95348.03;;;28.14;49.20
18167;BME280;9208;42.688;23.404;2022-08-01T12:45:30;95331.22;;;28.26;49.51
18167;BME280;9208;42.688;23.404;2022-08-01T12:47:57;95344.44;;;28.23;49.67
18167;BME280;9208;42.688;23.404;2022-08-01T12:50:28;95338.19;;;28.25;49.62
18167;BME280;9208;42.688;23.404;2022-08-01T12:52:55;95335.97;;;28.33;49.63
18167;BME280;9208;42.688;23.404;2022-08-01T12:55:22;95329.56;;;28.32;49.43
18167;BME280;9208;42.688;23.404;2022-08-01T12:58:03;95338.91;;;28.35;49.40
18167;BME280;9208;42.688;23.404;2022-08-01T13:00:30;95332.09;;;28.28;49.75
18167;BME280;9208;42.688;23.404;2022-08-01T13:03:07;95331.78;;;28.34;49.42
18167;BME280;9208;42.688;23.404;2022-08-01T13:08:12;95329.56;;;28.32;49.47
18167;BME280;9208;42.688;23.404;2022-08-01T13:10:38;95325.28;;;28.41;49.10
18167;BME280;9208;42.688;23.404;2022-08-01T13:13:03;95327.78;;;28.37;49.28
18167;BME280;9208;42.688;23.404;2022-08-01T13:15:34;95319.16;;;28.44;49.91
18167;BME280;9208;42.688;23.404;2022-08-01T13:23:39;95326.19;;;28.64;49.07
18167;BME280;9208;42.688;23.404;2022-08-01T13:26:05;95313.25;;;28.71;48.97
18167;BME280;9208;42.688;23.404;2022-08-01T13:28:31;95323.63;;;28.78;49.13
18167;BME280;9208;42.688;23.404;2022-08-01T13:30:59;95312.06;;;28.74;49.51
18167;BME280;9208;42.688;23.404;2022-08-01T13:33:28;95316.03;;;28.80;48.41
18167;BME280;9208;42.688;23.404;2022-08-01T13:35:54;95317.03;;;28.85;48.70
18167;BME280;9208;42.688;23.404;2022-08-01T13:38:21;95321.19;;;28.84;48.74
18167;BME280;9208;42.688;23.404;2022-08-01T13:41:07;95310.06;;;28.86;48.41
18167;BME280;9208;42.688;23.404;2022-08-01T13:43:34;95302.56;;;28.69;49.27
18167;BME280;9208;42.688;23.404;2022-08-01T13:46:00;95308.63;;;28.75;49.08
18167;BME280;9208;42.688;23.404;2022-08-01T13:48:28;95305.94;;;28.77;48.84
18167;BME280;9208;42.688;23.404;2022-08-01T13:50:53;95312.66;;;28.72;48.86
18167;BME280;9208;42.688;23.404;2022-08-01T13:53:19;95309.78;;;28.82;48.84
18167;BME280;9208;42.688;23.404;2022-08-01T13:55:44;95308.06;;;28.67;48.91
18167;BME280;9208;42.688;23.404;2022-08-01T13:58:10;95297.81;;;28.72;49.02
18167;BME280;9208;42.688;23.404;2022-08-01T14:00:35;95295.88;;;28.74;49.42
18167;BME280;9208;42.688;23.404;2022-08-01T14:03:00;95289.94;;;28.70;49.28